Thunder radar more information blitzortung!


Radar de pluja more information rain snow radar


Visita la nostra xarxa de llocs de meteo:

Template documentation
and downloads

And another site



No particular awareness of the weather is required.    There are no Weather-warnings

Pagina Historial Weather Underground text

Diari Resum Setembre 14, 2017 Unitats:  Mètric    Imperial   Tant
« Previous Dia
SegĂźent Dia »
Diari Setmana Mensual Anual Personalitzada
  Maxima: Minima: Media:
Temperatura: 30.4 °C 15.1 °C 20 °C
Punt de rosada: 19.4 °C 11.4 °C 13.7 °C
Humitat: 83 % 52 % 68 %
Wind Speed: 13.7 km/h 0.0 km/h 4.2 km/h
RĂ fegues de vent: 13.7 km/h - -
Vent:- - South
Pression baro: 1017.8 hPa 1013.8 hPa -
Precipitacions: 0.0 mm    
Historical Graphs
 
 
Dades de taula per Setembre 14, 2017
Temps Temperatura Punt de rosada Pression baro Vent Wind Speed RĂ fegues de vent Humitat Rainfall Rate (Hourly)
00:04 20.5 °C 16.3 °C 1017.8 hPa West 3.7 km/h 3.7 km/h 77 % 0.0 mm
00:05 20.5 °C 16.3 °C 1017.8 hPa SW 3.7 km/h 3.7 km/h 77 % 0.0 mm
19:15 18.2 °C 11.5 °C 1016.8 hPa ESE 3.2 km/h 3.2 km/h 65 % 0.0 mm
19:25 18.1 °C 11.4 °C 1015.8 hPa ESE 3.2 km/h 4.8 km/h 65 % 0.0 mm
19:35 18.1 °C 11.7 °C 1015.8 hPa Calm   3.2 km/h 66 % 0.0 mm
19:45 17.8 °C 11.8 °C 1015.8 hPa Calm   4.8 km/h 68 % 0.0 mm
19:55 17.5 °C 11.7 °C 1015.8 hPa SSE 3.2 km/h 3.2 km/h 69 % 0.0 mm
20:05 17.4 °C 12.1 °C 1015.8 hPa Calm   6.4 km/h 71 % 0.0 mm
20:15 16.8 °C 12.1 °C 1015.8 hPa South 1.6 km/h 1.6 km/h 74 % 0.0 mm
20:25 16.4 °C 11.9 °C 1015.8 hPa SW 1.6 km/h 3.2 km/h 75 % 1.0 mm
20:35 16.1 °C 12.3 °C 1015.8 hPa SSW 3.2 km/h 4.8 km/h 78 % 5.3 mm
20:45 16.0 °C 12.3 °C 1015.8 hPa NE 1.6 km/h 3.2 km/h 79 % 5.3 mm
20:55 15.9 °C 12.4 °C 1015.8 hPa NNE 3.2 km/h 3.2 km/h 80 % 1.0 mm
21:05 15.9 °C 12.7 °C 1015.8 hPa NE 1.6 km/h 3.2 km/h 81 % 0.0 mm
21:15 15.8 °C 12.7 °C 1015.8 hPa North 1.6 km/h 3.2 km/h 82 % 0.0 mm
21:25 15.9 °C 13.0 °C 1015.8 hPa NNW 1.6 km/h 3.2 km/h 83 % 0.0 mm
21:35 15.7 °C 12.4 °C 1015.8 hPa West 3.2 km/h 4.8 km/h 81 % 0.0 mm
21:42 30.4 °C 19.4 °C 1013.8 hPa West 1.9 km/h   52 % 0.0 mm
21:43 30.4 °C 19.4 °C 1013.8 hPa West 1.9 km/h   52 % 0.0 mm
21:45 15.5 °C 12.4 °C 1014.8 hPa West 3.2 km/h 4.8 km/h 82 % 0.0 mm
21:48 30.4 °C 19.4 °C 1013.8 hPa West 1.9 km/h   52 % 0.0 mm
21:53 30.4 °C 19.4 °C 1013.8 hPa West 1.9 km/h   52 % 0.0 mm
21:55 15.3 °C 12.2 °C 1015.8 hPa WNW 1.6 km/h 3.2 km/h 82 % 0.0 mm
21:58 30.4 °C 19.4 °C 1013.8 hPa West 1.9 km/h   52 % 0.0 mm
22:03 30.4 °C 19.4 °C 1013.8 hPa West 1.9 km/h   52 % 0.0 mm
22:05 15.1 °C 12.2 °C 1015.8 hPa North 3.2 km/h 4.8 km/h 83 % 1.0 mm
22:10 20.7 °C 14.1 °C 1016.8 hPa WSW 4.2 km/h 4.2 km/h 66 % 0.0 mm
22:15 20.7 °C 14.1 °C 1016.8 hPa SW 3.7 km/h 3.7 km/h 66 % 0.0 mm
22:20 20.7 °C 14.1 °C 1015.8 hPa WSW 3.7 km/h 3.7 km/h 66 % 0.0 mm
22:25 20.7 °C 14.1 °C 1015.8 hPa WSW 3.7 km/h 3.7 km/h 66 % 0.0 mm
22:30 20.7 °C 14.1 °C 1015.8 hPa WSW 3.7 km/h 3.7 km/h 66 % 0.0 mm
22:35 20.7 °C 14.1 °C 1015.8 hPa SW 2.6 km/h   66 % 0.0 mm
22:40 20.7 °C 14.1 °C 1015.8 hPa West 3.2 km/h   66 % 0.0 mm
22:45 20.7 °C 14.1 °C 1015.8 hPa South 3.7 km/h 3.7 km/h 66 % 0.0 mm
22:50 20.7 °C 14.1 °C 1015.8 hPa NNE 3.7 km/h 3.7 km/h 66 % 0.0 mm
22:55 20.7 °C 14.3 °C 1015.8 hPa ENE 4.7 km/h 4.7 km/h 67 % 0.0 mm
23:00 20.6 °C 14.5 °C 1015.8 hPa East 3.7 km/h 3.7 km/h 68 % 0.0 mm
23:05 20.5 °C 14.4 °C 1015.8 hPa SE 13.7 km/h 13.7 km/h 68 % 0.0 mm
23:10 20.0 °C 13.4 °C 1015.8 hPa East 11.1 km/h 11.1 km/h 66 % 0.0 mm
23:15 19.8 °C 13.1 °C 1015.8 hPa ESE 9.3 km/h 9.3 km/h 65 % 0.0 mm
23:20 19.6 °C 12.4 °C 1015.8 hPa ESE 11.1 km/h 11.1 km/h 63 % 0.0 mm
23:25 19.4 °C 12.2 °C 1015.8 hPa East 7.4 km/h 7.4 km/h 63 % 0.0 mm
23:30 19.2 °C 11.7 °C 1015.8 hPa ESE 9.3 km/h 9.3 km/h 62 % 0.0 mm
23:35 19.1 °C 11.7 °C 1014.8 hPa ENE 9.3 km/h 9.3 km/h 62 % 0.0 mm
23:40 18.8 °C 11.6 °C 1014.8 hPa ESE 11.1 km/h 11.1 km/h 63 % 0.0 mm
23:45 18.5 °C 11.6 °C 1014.8 hPa ESE 11.1 km/h 11.1 km/h 64 % 0.0 mm
23:50 18.5 °C 11.6 °C 1015.8 hPa ESE 5.6 km/h 5.6 km/h 64 % 0.0 mm
23:55 18.4 °C 11.4 °C 1015.8 hPa ENE 4.2 km/h 4.2 km/h 64 % 0.0 mm
Meteo Sesrovires
Elogis d' Weather Underground - 2.75 mb

Guio original per  Jim McMurry - jmcmurry@mwt.net Adaptat per a la plantilla per  Wim van der Kuil - Leuven-Template.eu

Trobareu la nostra informacio del temps tambe a:

Weather Underground

AWEKAS